createdAt,value
2018-12-31T00:01:49.899Z,10.87
2018-12-31T00:04:18.814Z,9.90
2018-12-31T00:06:47.779Z,11.00
2018-12-31T00:09:16.845Z,10.70
2018-12-31T00:11:45.690Z,10.77
2018-12-31T00:14:14.599Z,9.83
2018-12-31T00:16:43.506Z,10.90
2018-12-31T00:19:13.029Z,10.53
2018-12-31T00:21:43.268Z,11.73
2018-12-31T00:24:12.215Z,10.50
2018-12-31T00:26:41.169Z,10.50
2018-12-31T00:29:10.207Z,10.57
2018-12-31T00:31:39.230Z,10.70
2018-12-31T00:34:08.241Z,10.23
2018-12-31T00:36:37.134Z,11.70
2018-12-31T00:39:07.515Z,10.77
2018-12-31T00:41:37.713Z,10.50
2018-12-31T00:44:06.701Z,11.50
2018-12-31T00:46:35.658Z,10.57
2018-12-31T00:49:04.605Z,10.30
2018-12-31T00:51:33.509Z,11.00
2018-12-31T00:54:02.647Z,10.97
2018-12-31T00:56:31.540Z,10.43
2018-12-31T00:59:00.554Z,10.10
2018-12-31T01:01:34.018Z,10.73
2018-12-31T01:04:04.939Z,11.43
2018-12-31T01:06:34.098Z,11.93
2018-12-31T01:09:08.243Z,11.20
2018-12-31T01:11:37.188Z,10.97
2018-12-31T01:14:06.137Z,10.50
2018-12-31T01:16:35.083Z,10.83
2018-12-31T01:19:05.629Z,11.10
2018-12-31T01:21:34.622Z,10.60
2018-12-31T01:24:03.681Z,11.50
2018-12-31T01:26:32.682Z,10.20
2018-12-31T01:29:05.254Z,11.17
2018-12-31T01:31:34.851Z,12.00
2018-12-31T01:34:03.923Z,11.47
2018-12-31T01:36:33.443Z,11.10
2018-12-31T01:39:06.327Z,12.23
2018-12-31T01:41:37.391Z,11.57
2018-12-31T01:44:06.845Z,11.20
2018-12-31T01:46:35.695Z,10.13
2018-12-31T01:49:07.435Z,11.57
2018-12-31T01:51:36.382Z,11.10
2018-12-31T01:54:05.345Z,11.20
2018-12-31T01:56:34.186Z,11.70
2018-12-31T01:59:03.050Z,11.60
2018-12-31T02:01:31.978Z,11.70
2018-12-31T02:04:01.410Z,11.10
2018-12-31T02:06:30.346Z,11.80
2018-12-31T02:08:59.230Z,10.97
2018-12-31T02:11:31.041Z,11.37
2018-12-31T02:14:00.032Z,11.87
2018-12-31T02:16:28.971Z,11.77
2018-12-31T02:18:57.917Z,12.27
2018-12-31T02:21:26.800Z,11.57
2018-12-31T02:23:55.674Z,11.40
2018-12-31T02:26:24.670Z,11.67
2018-12-31T02:28:53.589Z,10.97
2018-12-31T02:31:22.448Z,12.17
2018-12-31T02:33:51.386Z,12.00
2018-12-31T02:36:20.251Z,11.03
2018-12-31T02:38:51.143Z,11.07
2018-12-31T02:41:20.154Z,11.33
2018-12-31T02:43:49.101Z,12.10
2018-12-31T02:46:17.947Z,12.03
2018-12-31T02:48:50.230Z,12.27
2018-12-31T02:51:19.736Z,10.70
2018-12-31T02:53:50.730Z,10.80
2018-12-31T02:56:24.410Z,12.73
2018-12-31T02:58:55.780Z,10.63
2018-12-31T03:01:26.126Z,11.63
2018-12-31T03:03:55.347Z,12.13
2018-12-31T03:06:24.529Z,12.53
2018-12-31T03:08:54.066Z,12.70
2018-12-31T03:11:24.980Z,12.70
2018-12-31T03:13:54.018Z,12.40
2018-12-31T03:16:23.015Z,12.10
2018-12-31T03:18:51.886Z,11.97
2018-12-31T03:21:20.878Z,12.07
2018-12-31T03:23:49.746Z,12.90
2018-12-31T03:26:19.393Z,14.13
2018-12-31T03:28:48.308Z,12.77
2018-12-31T03:31:17.233Z,10.83
2018-12-31T03:33:49.594Z,11.47
2018-12-31T03:36:18.538Z,11.30
2018-12-31T03:38:47.402Z,10.87
2018-12-31T03:41:16.772Z,11.90
2018-12-31T03:43:46.972Z,11.30
2018-12-31T03:46:15.898Z,10.53
2018-12-31T03:48:46.115Z,10.63
2018-12-31T03:51:15.375Z,10.03
2018-12-31T03:53:44.205Z,9.77
2018-12-31T03:56:13.447Z,9.97
2018-12-31T03:58:42.306Z,9.23
2018-12-31T04:01:14.579Z,10.63
2018-12-31T04:03:48.418Z,10.07
2018-12-31T04:06:17.544Z,11.03
2018-12-31T04:08:46.530Z,11.17
2018-12-31T04:11:15.666Z,10.47
2018-12-31T04:13:44.626Z,10.53
2018-12-31T04:16:13.573Z,9.63
2018-12-31T04:18:42.423Z,9.53
2018-12-31T04:21:11.434Z,10.33
2018-12-31T04:23:40.300Z,10.13
2018-12-31T04:26:12.992Z,10.63
2018-12-31T04:28:42.293Z,9.23
2018-12-31T04:31:11.294Z,9.33
2018-12-31T04:33:51.354Z,8.67
2018-12-31T04:36:18.736Z,9.43
2018-12-31T04:38:47.654Z,9.13
2018-12-31T04:41:16.541Z,9.10
2018-12-31T04:43:45.370Z,9.00
2018-12-31T04:46:14.320Z,9.47
2018-12-31T04:48:43.243Z,8.30
2018-12-31T04:51:12.106Z,9.17
2018-12-31T04:53:41.505Z,9.37
2018-12-31T04:56:12.617Z,9.77
2018-12-31T04:58:43.556Z,9.60
2018-12-31T05:01:17.593Z,10.00
2018-12-31T05:03:46.557Z,9.73
2018-12-31T05:06:18.574Z,10.43
2018-12-31T05:08:47.530Z,11.20
2018-12-31T05:11:16.412Z,9.40
2018-12-31T05:13:45.305Z,9.43
2018-12-31T05:16:14.215Z,8.93
2018-12-31T05:18:43.118Z,10.03
2018-12-31T05:21:12.070Z,9.60
2018-12-31T05:23:41.014Z,10.33
2018-12-31T05:26:10.023Z,10.17
2018-12-31T05:28:39.029Z,10.03
2018-12-31T05:31:10.005Z,10.83
2018-12-31T05:33:39.023Z,10.30
2018-12-31T05:36:07.981Z,10.60
2018-12-31T05:38:39.982Z,10.97
2018-12-31T05:41:09.022Z,11.03
2018-12-31T05:43:37.967Z,11.00
2018-12-31T05:46:06.897Z,10.10
2018-12-31T05:48:35.754Z,10.23
2018-12-31T05:51:04.840Z,10.00
2018-12-31T05:53:33.738Z,10.57
2018-12-31T05:56:02.657Z,10.47
2018-12-31T05:58:31.576Z,9.97
2018-12-31T06:01:00.452Z,10.03
2018-12-31T06:03:29.410Z,9.40
2018-12-31T06:05:58.482Z,10.57
2018-12-31T06:08:29.425Z,9.30
2018-12-31T06:10:59.561Z,11.47
2018-12-31T06:13:31.022Z,9.80
2018-12-31T06:15:59.947Z,9.63
2018-12-31T06:18:29.433Z,9.73
2018-12-31T06:20:59.317Z,7.90
2018-12-31T06:23:28.197Z,8.57
2018-12-31T06:25:57.046Z,9.13
2018-12-31T06:28:25.924Z,8.93
2018-12-31T06:30:54.848Z,8.33
2018-12-31T06:33:23.891Z,9.13
2018-12-31T06:35:52.864Z,8.43
2018-12-31T06:38:21.842Z,7.50
2018-12-31T06:40:50.702Z,9.07
2018-12-31T06:43:19.563Z,7.90
2018-12-31T06:45:48.501Z,7.50
2018-12-31T06:48:17.446Z,7.07
2018-12-31T06:50:46.277Z,8.70
2018-12-31T06:53:15.142Z,8.03
2018-12-31T06:55:44.068Z,8.60
2018-12-31T06:58:12.955Z,7.63
2018-12-31T07:00:41.890Z,7.93
2018-12-31T07:03:10.782Z,7.90
2018-12-31T07:05:44.816Z,9.13
2018-12-31T07:08:13.775Z,9.37
2018-12-31T07:10:42.713Z,8.13
2018-12-31T07:13:11.579Z,9.50
2018-12-31T07:15:40.515Z,9.67
2018-12-31T07:18:09.446Z,8.50
2018-12-31T07:20:38.403Z,9.17
2018-12-31T07:23:07.342Z,10.00
2018-12-31T07:25:36.635Z,9.50
2018-12-31T07:28:05.556Z,10.00
2018-12-31T07:30:34.685Z,9.00
2018-12-31T07:33:03.743Z,9.97
2018-12-31T07:35:32.602Z,8.50
2018-12-31T07:38:01.898Z,9.37
2018-12-31T07:40:30.827Z,8.83
2018-12-31T07:42:59.718Z,9.43
2018-12-31T07:45:28.783Z,8.27
2018-12-31T07:47:57.675Z,7.50
2018-12-31T07:50:28.191Z,9.53
2018-12-31T07:52:57.257Z,8.37
2018-12-31T07:55:26.118Z,7.87
2018-12-31T07:57:54.984Z,7.60
2018-12-31T08:00:23.958Z,8.67
2018-12-31T08:02:52.910Z,7.40
2018-12-31T08:05:21.816Z,7.97
2018-12-31T08:07:50.753Z,7.20
2018-12-31T08:10:19.608Z,7.23
2018-12-31T08:12:48.542Z,6.77
2018-12-31T08:15:17.595Z,7.17
2018-12-31T08:17:46.581Z,7.50
2018-12-31T08:20:15.472Z,6.73
2018-12-31T08:22:44.319Z,6.67
2018-12-31T08:25:13.385Z,6.80
2018-12-31T08:27:42.252Z,6.30
2018-12-31T08:30:11.241Z,5.13
2018-12-31T08:32:40.097Z,6.13
2018-12-31T08:35:08.966Z,6.47
2018-12-31T08:37:37.857Z,6.47
2018-12-31T08:40:06.809Z,6.40
2018-12-31T08:42:35.766Z,5.47
2018-12-31T08:45:05.415Z,5.40
2018-12-31T08:47:34.272Z,5.00
2018-12-31T08:50:03.482Z,5.90
2018-12-31T08:52:32.437Z,5.37
2018-12-31T08:55:01.383Z,4.70
2018-12-31T08:57:30.298Z,5.70
2018-12-31T08:59:59.438Z,4.53
2018-12-31T09:02:29.045Z,4.70
2018-12-31T09:04:58.619Z,4.70
2018-12-31T09:07:28.144Z,4.23
2018-12-31T09:09:57.126Z,4.43
2018-12-31T09:12:26.077Z,3.97
2018-12-31T09:14:54.969Z,5.50
2018-12-31T09:17:23.937Z,6.93
2018-12-31T09:19:53.139Z,6.77
2018-12-31T09:22:22.272Z,5.23
2018-12-31T09:24:51.399Z,5.20
2018-12-31T09:27:20.473Z,5.20
2018-12-31T09:29:49.319Z,5.97
2018-12-31T09:32:18.198Z,6.33
2018-12-31T09:34:47.567Z,5.57
2018-12-31T09:37:16.558Z,5.50
2018-12-31T09:39:45.412Z,6.60
2018-12-31T09:42:14.386Z,4.93
2018-12-31T09:44:43.242Z,6.10
2018-12-31T09:47:12.238Z,6.63
2018-12-31T09:49:41.122Z,5.73
2018-12-31T09:52:10.021Z,6.57
2018-12-31T09:54:38.931Z,8.57
2018-12-31T09:57:07.870Z,6.47
2018-12-31T09:59:39.079Z,5.20
2018-12-31T10:02:10.558Z,5.63
2018-12-31T10:04:40.263Z,5.07
2018-12-31T10:07:09.772Z,4.63
2018-12-31T10:09:40.111Z,5.63
2018-12-31T10:12:09.822Z,5.23
2018-12-31T10:14:39.656Z,4.70
2018-12-31T10:17:10.306Z,5.17
2018-12-31T10:19:39.617Z,4.90
2018-12-31T10:22:10.417Z,4.03
2018-12-31T10:24:40.467Z,3.90
2018-12-31T10:27:11.309Z,4.33
2018-12-31T10:29:45.170Z,5.03
2018-12-31T10:32:18.434Z,5.60
2018-12-31T10:34:48.253Z,4.77
2018-12-31T10:37:18.025Z,4.83
2018-12-31T10:39:47.929Z,4.17
2018-12-31T10:42:16.920Z,4.00
2018-12-31T10:44:46.040Z,4.53
2018-12-31T10:47:15.053Z,4.83
2018-12-31T10:49:44.046Z,4.90
2018-12-31T10:52:12.922Z,3.87
2018-12-31T10:54:42.158Z,4.20
2018-12-31T10:57:11.534Z,4.73
2018-12-31T10:59:40.840Z,4.07
2018-12-31T11:02:10.007Z,5.23
2018-12-31T11:04:39.504Z,3.97
2018-12-31T11:07:13.137Z,3.93
2018-12-31T11:09:43.099Z,4.47
2018-12-31T11:12:13.148Z,4.03
2018-12-31T11:14:42.606Z,3.90
2018-12-31T11:17:11.987Z,4.07
2018-12-31T11:19:40.855Z,4.00
2018-12-31T11:22:09.811Z,3.90
2018-12-31T11:24:42.759Z,4.97
2018-12-31T11:27:11.873Z,5.17
2018-12-31T11:29:46.844Z,6.03
2018-12-31T11:32:15.790Z,5.47
2018-12-31T11:34:44.649Z,4.27
2018-12-31T11:37:17.065Z,5.20
2018-12-31T11:39:45.994Z,4.13
2018-12-31T11:42:17.534Z,5.77
2018-12-31T11:44:47.339Z,5.23
2018-12-31T11:47:17.354Z,5.23
2018-12-31T11:49:47.655Z,5.20
2018-12-31T11:52:18.082Z,5.43
2018-12-31T11:54:46.942Z,6.30
2018-12-31T11:57:15.835Z,6.80
2018-12-31T11:59:44.697Z,6.63
2018-12-31T12:02:14.420Z,6.23
2018-12-31T12:04:43.303Z,7.37
2018-12-31T12:07:12.262Z,7.53
2018-12-31T12:09:41.106Z,7.33
2018-12-31T12:12:10.010Z,7.93
2018-12-31T12:14:39.811Z,6.90
2018-12-31T12:17:08.746Z,7.40
2018-12-31T12:19:38.926Z,8.13
2018-12-31T12:22:07.984Z,6.93
2018-12-31T12:24:37.102Z,6.90
2018-12-31T12:27:07.042Z,7.10
2018-12-31T12:29:35.998Z,7.73
2018-12-31T12:32:09.796Z,9.03
2018-12-31T12:34:38.706Z,7.67
2018-12-31T12:37:07.743Z,7.07
2018-12-31T12:39:36.579Z,7.67
2018-12-31T12:42:05.642Z,6.83
2018-12-31T12:44:34.636Z,8.10
2018-12-31T12:47:03.714Z,7.40
2018-12-31T12:49:32.666Z,8.40
2018-12-31T12:52:01.689Z,7.80
2018-12-31T12:54:30.672Z,7.87
2018-12-31T12:56:59.570Z,8.53
2018-12-31T12:59:28.522Z,8.50
2018-12-31T13:01:58.553Z,8.07
2018-12-31T13:04:27.406Z,9.00
2018-12-31T13:06:56.354Z,7.57
2018-12-31T13:09:25.754Z,7.73
2018-12-31T13:11:54.675Z,7.97
2018-12-31T13:14:24.155Z,8.00
2018-12-31T13:16:53.120Z,7.83
2018-12-31T13:19:22.405Z,8.17
2018-12-31T13:21:51.339Z,9.10
2018-12-31T13:24:20.314Z,7.60
2018-12-31T13:26:49.572Z,8.13
2018-12-31T13:29:18.461Z,8.93
2018-12-31T13:31:47.475Z,9.03
2018-12-31T13:34:16.557Z,9.97
2018-12-31T13:36:46.508Z,7.90
2018-12-31T13:39:15.686Z,9.50
2018-12-31T13:41:44.644Z,9.40
2018-12-31T13:44:17.057Z,9.83
2018-12-31T13:46:45.988Z,7.97
2018-12-31T13:49:14.978Z,9.27
2018-12-31T13:51:43.866Z,8.83
2018-12-31T13:54:12.818Z,9.17
2018-12-31T13:56:41.790Z,9.77
2018-12-31T13:59:10.799Z,8.17
2018-12-31T14:01:39.715Z,9.83
2018-12-31T14:04:08.699Z,8.50
2018-12-31T14:06:37.644Z,8.50
2018-12-31T14:09:07.624Z,8.57
2018-12-31T14:11:36.711Z,7.57
2018-12-31T14:14:05.686Z,8.93
2018-12-31T14:16:34.787Z,8.03
2018-12-31T14:19:03.821Z,7.80
2018-12-31T14:21:32.724Z,6.83
2018-12-31T14:24:01.771Z,7.50
2018-12-31T14:26:30.654Z,8.00
2018-12-31T14:28:59.696Z,8.00
2018-12-31T14:31:28.802Z,8.80
2018-12-31T14:33:57.786Z,8.53
2018-12-31T14:36:26.941Z,8.10
2018-12-31T14:38:55.983Z,9.30
2018-12-31T14:41:25.299Z,10.77
2018-12-31T14:43:54.330Z,7.57
2018-12-31T14:46:23.292Z,8.27
2018-12-31T14:48:52.586Z,8.43
2018-12-31T14:51:21.962Z,8.80
2018-12-31T14:53:51.098Z,27.80
2018-12-31T14:56:20.331Z,26.90
2018-12-31T14:58:49.301Z,11.13
2018-12-31T15:01:18.231Z,9.03
2018-12-31T15:03:47.478Z,7.33
2018-12-31T15:06:18.202Z,7.30
2018-12-31T15:08:47.334Z,7.27
2018-12-31T15:11:16.441Z,8.23
2018-12-31T15:13:45.362Z,7.70
2018-12-31T15:16:15.060Z,7.40
2018-12-31T15:18:43.987Z,6.03
2018-12-31T15:21:16.956Z,7.43
2018-12-31T15:23:46.936Z,7.80
2018-12-31T15:26:15.926Z,6.63
2018-12-31T15:28:44.914Z,11.87
2018-12-31T15:31:13.797Z,8.20
2018-12-31T15:33:42.706Z,8.03
2018-12-31T15:36:11.664Z,6.97
2018-12-31T15:38:40.538Z,6.87
2018-12-31T15:41:09.386Z,7.20
2018-12-31T15:43:38.347Z,7.33
2018-12-31T15:46:07.332Z,6.20
2018-12-31T15:48:36.222Z,5.20
2018-12-31T15:51:05.370Z,6.00
2018-12-31T15:53:34.442Z,5.50
2018-12-31T15:56:03.594Z,7.20
2018-12-31T15:58:32.646Z,6.63
2018-12-31T16:01:01.699Z,6.00
2018-12-31T16:03:30.754Z,6.43
2018-12-31T16:06:00.113Z,4.77
2018-12-31T16:08:29.410Z,3.93
2018-12-31T16:11:01.437Z,4.60
2018-12-31T16:16:06.389Z,4.93
2018-12-31T16:18:35.336Z,5.20
2018-12-31T16:21:05.850Z,4.43
2018-12-31T16:23:34.993Z,4.07
2018-12-31T16:26:04.325Z,4.33
2018-12-31T16:28:33.657Z,4.80
2018-12-31T16:31:02.775Z,4.03
2018-12-31T16:33:31.758Z,4.53
2018-12-31T16:36:00.763Z,5.10
2018-12-31T16:38:30.134Z,4.73
2018-12-31T16:40:59.563Z,4.97
2018-12-31T16:43:28.592Z,4.67
2018-12-31T16:45:57.665Z,6.07
2018-12-31T16:48:29.478Z,5.53
2018-12-31T16:51:02.990Z,7.10
2018-12-31T16:53:32.006Z,9.00
2018-12-31T16:56:01.222Z,7.67
2018-12-31T16:58:30.090Z,7.00
2018-12-31T17:00:59.322Z,7.60
2018-12-31T17:03:30.801Z,27.70
2018-12-31T17:06:01.073Z,13.57
2018-12-31T17:08:31.562Z,31.57
2018-12-31T17:11:01.824Z,7.00
2018-12-31T17:13:34.257Z,17.20
2018-12-31T17:16:07.793Z,24.60
2018-12-31T17:18:36.970Z,36.73
2018-12-31T17:21:06.122Z,26.43
2018-12-31T17:23:39.079Z,32.40
2018-12-31T17:26:09.060Z,33.93
2018-12-31T17:28:38.906Z,32.23
2018-12-31T17:31:08.605Z,11.30
2018-12-31T17:33:37.455Z,24.00
2018-12-31T17:36:06.412Z,13.97
2018-12-31T17:38:35.275Z,14.97
2018-12-31T17:41:04.398Z,11.57
2018-12-31T17:43:33.368Z,8.60
2018-12-31T17:46:02.418Z,7.90
2018-12-31T17:48:31.566Z,7.80
2018-12-31T17:51:00.441Z,8.20
2018-12-31T17:53:29.424Z,6.10
2018-12-31T17:55:58.381Z,5.90
2018-12-31T17:58:27.371Z,5.83
2018-12-31T18:00:56.342Z,9.33
2018-12-31T18:03:25.278Z,6.23
2018-12-31T18:05:54.622Z,6.60
2018-12-31T18:08:23.481Z,7.87
2018-12-31T18:10:52.690Z,9.03
2018-12-31T18:13:21.538Z,6.83
2018-12-31T18:15:51.822Z,19.20
2018-12-31T18:18:20.710Z,11.40
2018-12-31T18:20:49.666Z,17.57
2018-12-31T18:23:18.617Z,7.87
2018-12-31T18:25:47.594Z,20.33
2018-12-31T18:28:16.589Z,9.17
2018-12-31T18:30:50.796Z,5.70
2018-12-31T18:33:25.605Z,6.50
2018-12-31T18:35:57.145Z,6.80
2018-12-31T18:38:30.234Z,5.90
2018-12-31T18:40:59.386Z,11.37
2018-12-31T18:43:29.038Z,7.87
2018-12-31T18:46:02.686Z,6.93
2018-12-31T18:48:31.867Z,5.00
2018-12-31T18:51:01.297Z,6.27
2018-12-31T18:53:30.197Z,5.73
2018-12-31T18:55:59.794Z,5.63
2018-12-31T18:58:28.870Z,5.87
2018-12-31T19:00:57.911Z,7.37
2018-12-31T19:03:27.250Z,6.20
2018-12-31T19:05:56.146Z,7.97
2018-12-31T19:08:25.034Z,7.40
2018-12-31T19:10:53.902Z,6.73
2018-12-31T19:13:22.888Z,7.60
2018-12-31T19:15:52.158Z,7.47
2018-12-31T19:18:21.108Z,6.23
2018-12-31T19:20:50.153Z,7.00
2018-12-31T19:23:19.306Z,5.13
2018-12-31T19:25:48.470Z,6.93
2018-12-31T19:28:17.454Z,6.73
2018-12-31T19:30:46.527Z,6.10
2018-12-31T19:33:16.811Z,8.47
2018-12-31T19:35:52.980Z,8.17
2018-12-31T19:38:23.411Z,7.90
2018-12-31T19:40:56.333Z,8.87
2018-12-31T19:43:27.749Z,11.03
2018-12-31T19:45:59.846Z,7.77
2018-12-31T19:48:28.822Z,9.43
2018-12-31T19:50:57.927Z,7.23
2018-12-31T19:53:27.009Z,5.53
2018-12-31T19:55:56.222Z,5.27
2018-12-31T19:58:26.852Z,5.43
2018-12-31T20:00:57.843Z,5.00
2018-12-31T20:03:27.160Z,5.20
2018-12-31T20:05:56.134Z,6.23
2018-12-31T20:08:25.171Z,7.00
2018-12-31T20:10:54.231Z,11.40
2018-12-31T20:13:23.081Z,6.17
2018-12-31T20:15:52.233Z,5.80
2018-12-31T20:18:21.294Z,6.00
2018-12-31T20:20:50.245Z,5.10
2018-12-31T20:23:19.440Z,5.60
2018-12-31T20:25:49.141Z,4.60
2018-12-31T20:28:18.184Z,10.67
2018-12-31T20:30:47.299Z,6.90
2018-12-31T20:33:16.342Z,7.30
2018-12-31T20:35:45.226Z,7.07
2018-12-31T20:38:14.232Z,6.23
2018-12-31T20:40:43.222Z,6.23
2018-12-31T20:43:14.038Z,5.80
2018-12-31T20:45:43.126Z,11.17
2018-12-31T20:48:12.142Z,6.03
2018-12-31T20:50:41.098Z,6.57
2018-12-31T20:53:09.951Z,5.47
2018-12-31T20:55:38.953Z,5.37
2018-12-31T20:58:07.909Z,8.00
2018-12-31T21:00:36.954Z,7.23
2018-12-31T21:03:05.985Z,6.67
2018-12-31T21:05:35.030Z,6.00
2018-12-31T21:08:04.044Z,6.27
2018-12-31T21:10:34.789Z,5.97
2018-12-31T21:13:04.126Z,6.53
2018-12-31T21:15:33.137Z,6.33
2018-12-31T21:18:02.130Z,6.37
2018-12-31T21:20:31.211Z,5.67
2018-12-31T21:23:00.639Z,7.07
2018-12-31T21:25:29.511Z,7.20
2018-12-31T21:28:02.714Z,6.20
2018-12-31T21:30:32.381Z,5.30
2018-12-31T21:33:01.373Z,6.07
2018-12-31T21:35:30.306Z,8.87
2018-12-31T21:38:03.599Z,12.00
2018-12-31T21:40:32.736Z,11.60
2018-12-31T21:43:01.775Z,8.30
2018-12-31T21:45:31.582Z,8.53
2018-12-31T21:48:00.619Z,10.20
2018-12-31T21:50:29.634Z,7.30
2018-12-31T21:52:58.505Z,7.67
2018-12-31T21:55:27.860Z,8.13
2018-12-31T21:57:56.802Z,7.80
2018-12-31T22:00:26.044Z,7.80
2018-12-31T22:02:57.237Z,6.30
2018-12-31T22:05:26.042Z,11.23
2018-12-31T22:07:57.480Z,9.17
2018-12-31T22:10:26.461Z,6.57
2018-12-31T22:12:55.542Z,6.60
2018-12-31T22:15:24.771Z,6.47
2018-12-31T22:17:53.869Z,6.17
2018-12-31T22:20:23.024Z,6.73
2018-12-31T22:22:52.075Z,5.30
2018-12-31T22:25:21.377Z,7.87
2018-12-31T22:27:50.364Z,7.27
2018-12-31T22:30:19.422Z,7.67
2018-12-31T22:32:48.374Z,6.83
2018-12-31T22:35:20.795Z,29.03
2018-12-31T22:37:50.030Z,12.30
2018-12-31T22:40:20.191Z,13.27
2018-12-31T22:42:49.247Z,11.40
2018-12-31T22:45:18.243Z,9.67
2018-12-31T22:47:47.278Z,36.33
2018-12-31T22:50:16.291Z,8.47
2018-12-31T22:52:45.250Z,6.83
2018-12-31T22:55:14.136Z,6.47
2018-12-31T22:57:43.247Z,6.37
2018-12-31T23:00:12.490Z,8.93
2018-12-31T23:02:41.530Z,18.77
2018-12-31T23:05:12.242Z,116.93
2018-12-31T23:07:41.525Z,124.70
2018-12-31T23:10:10.746Z,107.93
2018-12-31T23:12:39.710Z,95.97
2018-12-31T23:15:12.702Z,91.53
2018-12-31T23:17:41.611Z,106.87
2018-12-31T23:20:11.606Z,106.20
2018-12-31T23:22:41.996Z,49.93
2018-12-31T23:25:10.946Z,76.33
2018-12-31T23:27:39.902Z,98.57
2018-12-31T23:30:09.748Z,59.80
2018-12-31T23:32:38.629Z,49.50
2018-12-31T23:35:09.850Z,60.43
2018-12-31T23:37:41.505Z,45.20
2018-12-31T23:40:10.657Z,42.63
2018-12-31T23:42:39.627Z,37.80
2018-12-31T23:45:09.858Z,38.97
2018-12-31T23:47:39.008Z,30.50
2018-12-31T23:50:09.718Z,34.43
2018-12-31T23:52:38.740Z,31.77
2018-12-31T23:55:08.064Z,24.27
2018-12-31T23:57:37.028Z,18.30
